Time;durP1;ratioP1;P1;durP2;ratioP2;P2;SDS_P1;SDS_P2;PMS_P1;PMS_P2;Temp;Humidity;BMP_temperature;BMP_pressure;BME280_temperature;BME280_humidity;BME280_pressure;Samples;Min_cycle;Max_cycle;Signal;HPM_P1;HPM_P2
2023/09/03 00:00:42;;;;;;;8.53;4.43;;;23.20;92.50;;;;;;5111684;28;20204;-64
2023/09/03 00:03:09;;;;;;;9.03;5.07;;;23.20;92.60;;;;;;5110322;27;20202;-63
2023/09/03 00:05:36;;;;;;;7.10;4.17;;;23.20;92.70;;;;;;5109455;28;20208;-64
2023/09/03 00:08:04;;;;;;;10.00;3.87;;;23.10;92.70;;;;;;5108793;28;20260;-63
2023/09/03 00:10:34;;;;;;;7.30;4.57;;;23.10;92.80;;;;;;5111055;28;20646;-63
2023/09/03 00:13:03;;;;;;;7.00;4.37;;;23.10;92.90;;;;;;5103816;28;20250;-63
2023/09/03 00:15:31;;;;;;;11.63;4.83;;;23.10;93.00;;;;;;5109258;28;20228;-63
2023/09/03 00:17:58;;;;;;;7.20;4.27;;;23.10;93.10;;;;;;5109637;28;20728;-63
2023/09/03 00:20:25;;;;;;;4.97;3.77;;;23.10;93.10;;;;;;5112936;28;20554;-63
2023/09/03 00:22:52;;;;;;;3.60;3.30;;;23.10;93.20;;;;;;5103079;28;20251;-63
2023/09/03 00:25:19;;;;;;;6.67;3.73;;;23.00;93.20;;;;;;5108015;28;20193;-63
2023/09/03 00:27:46;;;;;;;6.20;3.97;;;23.00;93.20;;;;;;5110349;28;20261;-63
2023/09/03 00:30:13;;;;;;;5.03;4.10;;;23.00;93.20;;;;;;5106774;28;20200;-63
2023/09/03 00:32:40;;;;;;;5.90;3.40;;;23.00;93.20;;;;;;5104854;28;20197;-63
2023/09/03 00:35:08;;;;;;;4.07;3.60;;;23.00;93.20;;;;;;5094842;28;20636;-63
2023/09/03 00:37:35;;;;;;;6.77;3.47;;;22.90;93.10;;;;;;5105918;28;20329;-63
2023/09/03 00:40:03;;;;;;;5.53;4.30;;;22.80;92.90;;;;;;5094445;28;20716;-63
2023/09/03 00:42:30;;;;;;;6.40;4.00;;;22.80;92.90;;;;;;5084979;28;20212;-63
2023/09/03 00:44:57;;;;;;;6.03;4.00;;;22.80;93.00;;;;;;5106733;28;20599;-63
2023/09/03 00:47:24;;;;;;;5.33;4.00;;;22.80;93.00;;;;;;5092160;28;20205;-63
2023/09/03 00:49:51;;;;;;;6.60;4.50;;;22.70;93.10;;;;;;5108738;28;20265;-63
2023/09/03 00:52:21;;;;;;;5.67;4.47;;;22.70;93.30;;;;;;5095004;28;20288;-63
2023/09/03 00:54:48;;;;;;;4.67;3.80;;;22.70;93.30;;;;;;5102162;28;20196;-63
2023/09/03 00:57:15;;;;;;;7.97;4.80;;;22.70;93.40;;;;;;5105723;28;20677;-63
2023/09/03 00:59:45;;;;;;;8.43;4.63;;;22.70;93.40;;;;;;5107677;28;20539;-63
2023/09/03 01:02:14;;;;;;;7.10;5.17;;;22.70;93.50;;;;;;5086063;28;20292;-63
2023/09/03 01:04:41;;;;;;;7.10;4.53;;;22.70;93.60;;;;;;5092869;28;20212;-63
2023/09/03 01:07:10;;;;;;;7.40;4.53;;;22.60;93.60;;;;;;5089346;28;20663;-63
2023/09/03 01:09:38;;;;;;;7.27;4.87;;;22.60;93.60;;;;;;5089972;28;20208;-63
2023/09/03 01:12:14;;;;;;;8.40;5.47;;;22.60;93.60;;;;;;5090655;28;20717;-63
2023/09/03 01:15:02;;;;;;;7.23;4.77;;;22.60;93.70;;;;;;5094320;28;20712;-63
2023/09/03 01:17:46;;;;;;;6.60;5.97;;;22.60;93.70;;;;;;5103435;28;20213;-63
2023/09/03 01:20:21;;;;;;;10.67;7.30;;;22.50;93.70;;;;;;5103932;28;20188;-62
2023/09/03 01:23:24;;;;;;;7.23;6.33;;;22.50;93.80;;;;;;5106352;28;20239;-63
2023/09/03 01:26:12;;;;;;;8.23;6.07;;;22.50;93.80;;;;;;5042943;28;20207;-63
2023/09/03 01:28:41;;;;;;;9.47;6.60;;;22.50;93.70;;;;;;5085342;28;20220;-63
2023/09/03 01:31:11;;;;;;;11.20;7.27;;;22.50;93.60;;;;;;5111557;27;20204;-63
2023/09/03 01:33:41;;;;;;;7.80;6.80;;;22.50;93.60;;;;;;5108851;28;20204;-63
2023/09/03 01:36:11;;;;;;;8.87;6.93;;;22.50;93.60;;;;;;5093602;28;20208;-63
2023/09/03 01:38:39;;;;;;;16.57;8.47;;;22.40;93.40;;;;;;5102962;28;20703;-63
2023/09/03 01:41:08;;;;;;;10.03;8.23;;;22.40;93.40;;;;;;5103591;28;20201;-64
2023/09/03 01:43:36;;;;;;;13.17;9.37;;;22.40;93.40;;;;;;5106299;28;20198;-63
2023/09/03 01:46:09;;;;;;;12.60;9.40;;;22.40;93.30;;;;;;5113538;27;20193;-63
2023/09/03 01:48:57;;;;;;;11.60;9.47;;;22.40;93.40;;;;;;5102765;27;20262;-63
2023/09/03 01:51:39;;;;;;;10.07;9.07;;;22.40;93.40;;;;;;5102647;28;20193;-63
2023/09/03 01:54:22;;;;;;;11.87;10.20;;;22.40;93.40;;;;;;5104963;28;20541;-63
2023/09/03 01:57:07;;;;;;;13.73;10.93;;;22.40;93.30;;;;;;5101477;28;20283;-63
2023/09/03 01:59:48;;;;;;;17.63;10.30;;;22.40;93.50;;;;;;5091161;28;20200;-63
2023/09/03 02:02:18;;;;;;;12.47;10.97;;;22.40;93.20;;;;;;5089319;28;20213;-63
2023/09/03 02:04:45;;;;;;;12.30;11.00;;;22.40;93.10;;;;;;5107313;28;20279;-63
2023/09/03 02:07:12;;;;;;;11.13;9.73;;;22.40;93.10;;;;;;5106665;28;20672;-63
2023/09/03 02:09:40;;;;;;;20.60;11.37;;;22.40;93.10;;;;;;5101772;28;20200;-63
2023/09/03 02:12:07;;;;;;;13.97;12.50;;;22.40;93.00;;;;;;5094349;28;20196;-63
2023/09/03 02:14:35;;;;;;;14.07;12.60;;;22.30;92.80;;;;;;5085262;28;20208;-63
2023/09/03 02:17:02;;;;;;;13.47;11.93;;;22.30;92.70;;;;;;5103453;28;20528;-63
2023/09/03 02:19:29;;;;;;;14.40;12.33;;;22.30;92.70;;;;;;5088822;28;20594;-63
2023/09/03 02:21:56;;;;;;;19.53;12.47;;;22.20;92.70;;;;;;5090434;28;20331;-63
2023/09/03 02:24:23;;;;;;;15.10;12.03;;;22.20;92.80;;;;;;5106394;28;20221;-63
2023/09/03 02:26:50;;;;;;;14.57;13.07;;;22.20;92.80;;;;;;5091294;28;20197;-62
2023/09/03 02:29:17;;;;;;;14.17;12.67;;;22.20;92.80;;;;;;5104645;28;20197;-63
2023/09/03 02:31:44;;;;;;;16.67;14.43;;;22.20;92.70;;;;;;5090365;28;20200;-63
2023/09/03 02:34:13;;;;;;;16.37;13.83;;;22.10;92.60;;;;;;5091433;28;20212;-62
2023/09/03 02:36:40;;;;;;;18.73;14.03;;;22.10;92.60;;;;;;5083112;28;20205;-63
2023/09/03 02:39:07;;;;;;;17.87;13.93;;;22.10;92.50;;;;;;5093017;28;20212;-63
2023/09/03 02:41:34;;;;;;;18.10;13.40;;;22.10;92.50;;;;;;5086025;28;20288;-63
2023/09/03 02:44:02;;;;;;;15.47;14.00;;;22.10;92.40;;;;;;5105178;28;20200;-63
2023/09/03 02:46:29;;;;;;;16.13;14.43;;;22.10;92.50;;;;;;5091950;28;20613;-64
2023/09/03 02:48:57;;;;;;;18.80;13.97;;;22.00;92.40;;;;;;5088374;28;20315;-63
2023/09/03 02:51:24;;;;;;;17.33;14.63;;;22.00;92.50;;;;;;5088092;28;20220;-63
2023/09/03 02:53:51;;;;;;;16.83;13.73;;;22.00;92.50;;;;;;5092346;28;20201;-63
2023/09/03 02:56:18;;;;;;;21.93;14.90;;;22.00;92.60;;;;;;5095379;28;20219;-63
2023/09/03 02:58:48;;;;;;;16.30;14.53;;;22.00;92.60;;;;;;5104728;28;20213;-63
2023/09/03 03:01:20;;;;;;;15.80;14.20;;;22.00;92.60;;;;;;5108117;28;20201;-63
2023/09/03 03:03:47;;;;;;;17.07;14.00;;;22.00;92.50;;;;;;5089359;28;20200;-64
2023/09/03 03:06:15;;;;;;;15.20;13.60;;;22.00;92.50;;;;;;5086252;28;20217;-63
2023/09/03 03:08:43;;;;;;;15.87;14.27;;;22.00;92.50;;;;;;5093149;28;20224;-63
2023/09/03 03:11:14;;;;;;;17.07;15.10;;;22.00;92.50;;;;;;5092137;28;20242;-63
2023/09/03 03:13:50;;;;;;;16.13;13.80;;;21.90;92.50;;;;;;5093269;28;20255;-63
2023/09/03 03:16:18;;;;;;;15.57;13.97;;;21.90;92.50;;;;;;5085227;28;20197;-63
2023/09/03 03:18:48;;;;;;;17.53;15.17;;;21.80;92.60;;;;;;5085647;28;20561;-63
2023/09/03 03:21:19;;;;;;;16.67;14.13;;;21.80;92.70;;;;;;5092729;28;20212;-63
2023/09/03 03:23:51;;;;;;;16.97;14.63;;;21.80;92.80;;;;;;5091696;28;20610;-63
2023/09/03 03:26:26;;;;;;;16.60;15.00;;;21.80;92.90;;;;;;5091619;28;20204;-63
2023/09/03 03:28:54;;;;;;;15.67;14.20;;;21.70;92.80;;;;;;5088108;28;20204;-63
2023/09/03 03:31:22;;;;;;;16.13;14.43;;;21.70;92.80;;;;;;5087880;28;20212;-63
2023/09/03 03:33:51;;;;;;;18.37;15.60;;;21.70;92.90;;;;;;5104560;28;20533;-63
2023/09/03 03:36:21;;;;;;;15.83;14.20;;;21.70;92.90;;;;;;5097983;28;20193;-63
2023/09/03 03:38:49;;;;;;;17.70;14.77;;;21.60;92.90;;;;;;5086497;28;20216;-63
2023/09/03 03:41:19;;;;;;;15.87;14.23;;;21.60;93.00;;;;;;5089922;28;20199;-63
2023/09/03 03:43:51;;;;;;;18.23;13.67;;;21.60;93.00;;;;;;5090069;28;20211;-63
2023/09/03 03:46:20;;;;;;;17.83;14.70;;;21.60;93.10;;;;;;5069372;28;20231;-63
2023/09/03 03:48:50;;;;;;;17.50;14.37;;;21.60;93.40;;;;;;5103021;28;20217;-63
2023/09/03 03:51:19;;;;;;;16.67;14.83;;;21.60;93.20;;;;;;5090514;28;20203;-63
2023/09/03 03:53:46;;;;;;;19.23;15.97;;;21.60;93.20;;;;;;5108801;28;20196;-63
2023/09/03 03:56:13;;;;;;;17.93;16.03;;;21.60;93.10;;;;;;5101249;28;20617;-63
2023/09/03 03:58:42;;;;;;;19.37;15.60;;;21.50;93.00;;;;;;5100110;28;20212;-63
2023/09/03 04:01:18;;;;;;;17.63;15.57;;;21.50;93.00;;;;;;5101876;28;20227;-63
2023/09/03 04:03:48;;;;;;;18.40;16.60;;;21.50;93.20;;;;;;5102188;28;20585;-63
2023/09/03 04:06:15;;;;;;;21.27;15.63;;;21.50;93.20;;;;;;5102763;28;20205;-63
2023/09/03 04:08:43;;;;;;;18.27;16.10;;;21.50;93.30;;;;;;5087197;28;20209;-63
2023/09/03 04:11:13;;;;;;;21.47;15.37;;;21.50;93.30;;;;;;5098189;28;20200;-63
2023/09/03 04:13:40;;;;;;;18.63;15.50;;;21.40;93.30;;;;;;5104342;28;20266;-63
2023/09/03 04:16:16;;;;;;;19.13;15.50;;;21.40;93.40;;;;;;5086989;28;20274;-62
2023/09/03 04:18:46;;;;;;;17.00;15.30;;;21.40;93.40;;;;;;5087964;28;20224;-62
2023/09/03 04:21:13;;;;;;;17.73;15.80;;;21.40;93.40;;;;;;5101251;28;20544;-63
2023/09/03 04:23:40;;;;;;;18.50;16.43;;;21.40;93.40;;;;;;5101590;28;20237;-63
2023/09/03 04:26:09;;;;;;;17.60;15.87;;;21.40;93.50;;;;;;5105509;28;20193;-63
2023/09/03 04:28:41;;;;;;;18.57;16.10;;;21.40;93.50;;;;;;5101209;28;20220;-63
2023/09/03 04:31:08;;;;;;;18.07;15.10;;;21.40;93.80;;;;;;5087704;28;20651;-63
2023/09/03 04:33:39;;;;;;;18.03;16.23;;;21.40;93.50;;;;;;5101646;28;20201;-63
2023/09/03 04:36:09;;;;;;;19.43;15.60;;;21.40;93.50;;;;;;5085894;28;20209;-63
2023/09/03 04:38:36;;;;;;;18.33;16.37;;;21.40;93.50;;;;;;5085376;28;20206;-63
2023/09/03 04:41:04;;;;;;;18.50;16.57;;;21.40;93.40;;;;;;5082819;28;20197;-63
2023/09/03 04:43:44;;;;;;;26.73;17.50;;;21.40;93.40;;;;;;5088899;28;20724;-63
2023/09/03 04:46:14;;;;;;;21.17;16.40;;;21.40;93.30;;;;;;5089686;28;20643;-63
2023/09/03 04:48:41;;;;;;;20.20;18.10;;;21.40;93.30;;;;;;5099696;28;20213;-63
2023/09/03 04:51:08;;;;;;;21.27;19.10;;;21.40;93.30;;;;;;5088102;28;20209;-63
2023/09/03 04:53:36;;;;;;;20.63;18.40;;;21.40;93.40;;;;;;5098529;28;20213;-63
2023/09/03 04:56:11;;;;;;;20.90;18.80;;;21.40;93.40;;;;;;5102016;28;20207;-63
2023/09/03 04:58:38;;;;;;;21.50;19.20;;;21.50;93.40;;;;;;5095511;28;20238;-63
2023/09/03 05:01:16;;;;;;;22.00;19.70;;;21.50;93.40;;;;;;5092323;28;20212;-63
2023/09/03 05:03:47;;;;;;;22.30;18.43;;;21.60;93.30;;;;;;5093321;28;20212;-62
2023/09/03 05:06:17;;;;;;;24.23;20.33;;;21.60;93.20;;;;;;5095199;28;20201;-63
2023/09/03 05:08:48;;;;;;;22.37;18.87;;;21.70;93.20;;;;;;5105561;28;20197;-63
2023/09/03 05:11:16;;;;;;;26.93;21.20;;;21.70;93.20;;;;;;5094927;28;20201;-63
2023/09/03 05:13:45;;;;;;;23.30;18.70;;;21.80;93.10;;;;;;5095568;28;20612;-63
2023/09/03 05:16:14;;;;;;;21.80;19.17;;;21.80;93.10;;;;;;5094078;28;20200;-63
2023/09/03 05:18:42;;;;;;;23.17;20.13;;;21.90;93.00;;;;;;5088146;28;20303;-63
2023/09/03 05:21:10;;;;;;;23.30;19.60;;;21.90;93.00;;;;;;5104048;28;20659;-63
2023/09/03 05:23:37;;;;;;;21.93;19.60;;;22.00;93.00;;;;;;5089981;28;20236;-63
2023/09/03 05:26:05;;;;;;;20.13;18.03;;;22.00;92.90;;;;;;5094554;28;20201;-63
2023/09/03 05:28:35;;;;;;;20.87;18.83;;;22.10;92.90;;;;;;5081983;28;20238;-63
2023/09/03 05:31:02;;;;;;;19.40;17.50;;;22.20;92.90;;;;;;5104100;28;20699;-63
2023/09/03 05:33:31;;;;;;;19.33;16.97;;;22.30;92.80;;;;;;5094561;28;20279;-63
2023/09/03 05:35:58;;;;;;;19.63;17.23;;;22.40;92.70;;;;;;5095078;28;20228;-63
2023/09/03 05:38:25;;;;;;;18.80;16.33;;;22.40;92.50;;;;;;5094053;28;20225;-63
2023/09/03 05:40:52;;;;;;;20.40;16.73;;;22.50;92.40;;;;;;5104235;28;20221;-63
2023/09/03 05:43:19;;;;;;;22.23;17.13;;;22.60;92.20;;;;;;5089164;28;20205;-63
2023/09/03 05:45:51;;;;;;;18.77;15.73;;;22.70;92.00;;;;;;5093321;28;20208;-63
2023/09/03 05:48:18;;;;;;;17.93;15.03;;;22.80;91.80;;;;;;5107445;28;20208;-63
2023/09/03 05:50:46;;;;;;;16.20;14.23;;;22.90;91.70;;;;;;5105758;28;20210;-63
2023/09/03 05:53:13;;;;;;;16.20;14.40;;;22.90;91.50;;;;;;5090320;28;20258;-63
2023/09/03 05:55:40;;;;;;;17.33;14.03;;;23.00;91.30;;;;;;5085104;28;20198;-63
2023/09/03 05:58:08;;;;;;;14.00;12.47;;;23.20;91.10;;;;;;5095337;28;20204;-63
2023/09/03 06:00:41;;;;;;;14.17;12.53;;;23.30;90.80;;;;;;5092992;28;20262;-63
2023/09/03 06:03:11;;;;;;;16.93;11.93;;;23.50;90.40;;;;;;5103495;28;20223;-63
2023/09/03 06:05:38;;;;;;;14.40;12.90;;;23.70;90.00;;;;;;5102331;28;20262;-63
2023/09/03 06:08:05;;;;;;;15.10;13.17;;;23.90;89.00;;;;;;5103133;28;20197;-64
2023/09/03 06:10:36;;;;;;;14.03;10.97;;;24.10;88.40;;;;;;5107458;28;20201;-63
2023/09/03 06:13:03;;;;;;;12.97;11.57;;;24.20;87.50;;;;;;5109226;28;20211;-63
2023/09/03 06:15:30;;;;;;;17.20;12.13;;;24.40;86.80;;;;;;5094717;28;20196;-63
2023/09/03 06:17:59;;;;;;;12.53;11.10;;;24.50;86.30;;;;;;5107400;28;20208;-63
2023/09/03 06:20:26;;;;;;;15.27;12.03;;;24.60;85.80;;;;;;5107051;28;20519;-64
2023/09/03 06:22:54;;;;;;;13.17;11.83;;;24.70;85.70;;;;;;5105840;28;20236;-64
2023/09/03 06:25:21;;;;;;;13.60;12.20;;;24.70;85.40;;;;;;5110749;28;20230;-63
2023/09/03 06:27:48;;;;;;;15.53;11.60;;;24.70;85.10;;;;;;5104712;28;20305;-63
2023/09/03 06:30:15;;;;;;;16.10;12.20;;;24.70;84.90;;;;;;5105979;28;20196;-63
2023/09/03 06:32:42;;;;;;;14.80;11.40;;;24.70;84.80;;;;;;5093583;28;20205;-64
2023/09/03 06:35:09;;;;;;;11.97;10.87;;;24.70;84.80;;;;;;5107789;28;20192;-63
2023/09/03 06:37:36;;;;;;;12.07;10.87;;;24.80;84.80;;;;;;5108809;28;20257;-63
2023/09/03 06:40:03;;;;;;;16.83;10.87;;;24.80;84.80;;;;;;5097713;28;20218;-64
2023/09/03 06:42:30;;;;;;;11.73;10.57;;;24.80;84.70;;;;;;5103490;28;20201;-64
2023/09/03 06:44:57;;;;;;;14.10;10.03;;;24.80;84.60;;;;;;5107134;28;20195;-64
2023/09/03 06:47:25;;;;;;;11.20;9.10;;;24.90;84.40;;;;;;5075851;28;20579;-64
2023/09/03 06:49:52;;;;;;;12.50;9.10;;;25.00;84.20;;;;;;5100009;28;20321;-64
2023/09/03 06:52:19;;;;;;;11.07;8.93;;;25.10;83.80;;;;;;5102664;27;20200;-64
2023/09/03 06:54:47;;;;;;;15.07;9.20;;;25.10;83.10;;;;;;5106315;28;20203;-64
2023/09/03 06:57:14;;;;;;;9.93;8.37;;;25.20;82.70;;;;;;5105781;28;20273;-64
2023/09/03 06:59:55;;;;;;;12.73;8.17;;;25.30;82.30;;;;;;5103359;28;20212;-64
2023/09/03 07:02:23;;;;;;;9.47;7.87;;;25.40;82.30;;;;;;5104585;28;20260;-64
2023/09/03 07:04:51;;;;;;;10.67;8.33;;;25.50;82.20;;;;;;5102915;28;20280;-64
2023/09/03 07:07:18;;;;;;;13.10;9.10;;;25.50;81.50;;;;;;5108001;28;20618;-64
2023/09/03 07:09:45;;;;;;;16.33;8.57;;;25.60;81.10;;;;;;5102047;28;20204;-64
2023/09/03 07:12:12;;;;;;;13.97;9.00;;;25.60;80.60;;;;;;5103076;28;20205;-64
2023/09/03 07:14:39;;;;;;;12.53;8.10;;;25.70;80.40;;;;;;5102296;28;20292;-64
2023/09/03 07:17:06;;;;;;;11.80;8.90;;;25.70;80.20;;;;;;5105681;28;20218;-64
2023/09/03 07:19:33;;;;;;;10.83;8.87;;;25.80;80.20;;;;;;5103417;28;20220;-64
2023/09/03 07:22:00;;;;;;;12.23;9.33;;;25.90;80.10;;;;;;5101964;28;20229;-65
2023/09/03 07:24:27;;;;;;;10.67;8.80;;;26.00;79.70;;;;;;5100637;28;20192;-64
2023/09/03 07:26:54;;;;;;;12.37;10.00;;;26.10;79.60;;;;;;5102745;28;20200;-64
2023/09/03 07:29:21;;;;;;;11.97;9.60;;;26.20;79.40;;;;;;5103884;28;20220;-64
2023/09/03 07:31:48;;;;;;;10.23;9.03;;;26.30;78.80;;;;;;5097884;28;20212;-64
2023/09/03 07:34:16;;;;;;;16.73;11.37;;;26.40;78.30;;;;;;5098275;28;20627;-64
2023/09/03 07:36:43;;;;;;;14.37;11.00;;;26.50;78.10;;;;;;5102143;28;20300;-64
2023/09/03 07:39:10;;;;;;;13.80;10.33;;;26.60;77.50;;;;;;5104315;28;20295;-65
2023/09/03 07:41:38;;;;;;;15.67;12.67;;;26.80;77.30;;;;;;5086256;28;20612;-64
2023/09/03 07:44:05;;;;;;;16.63;13.47;;;26.90;76.70;;;;;;5100037;28;20200;-64
2023/09/03 07:46:34;;;;;;;15.40;12.43;;;27.00;76.20;;;;;;5103297;28;20200;-64
2023/09/03 07:49:01;;;;;;;14.90;13.43;;;27.10;76.00;;;;;;5103883;28;20294;-65
2023/09/03 07:51:28;;;;;;;19.70;13.33;;;27.30;75.90;;;;;;5101926;28;20216;-64
2023/09/03 07:53:54;;;;;;;17.07;13.43;;;27.40;75.20;;;;;;5105697;28;20199;-64
2023/09/03 07:56:21;;;;;;;13.93;12.53;;;27.50;74.50;;;;;;5096824;28;20211;-64
2023/09/03 07:58:49;;;;;;;18.57;12.60;;;27.60;74.00;;;;;;5104192;28;20227;-64
2023/09/03 08:01:16;;;;;;;16.57;14.87;;;27.70;73.50;;;;;;5102358;28;20200;-64
2023/09/03 08:03:44;;;;;;;25.53;15.27;;;27.70;72.70;;;;;;5101113;28;20193;-64
2023/09/03 08:06:13;;;;;;;20.63;15.13;;;27.70;72.70;;;;;;5096910;28;20192;-64
2023/09/03 08:08:40;;;;;;;18.67;15.50;;;27.80;72.90;;;;;;5102237;28;20515;-64
2023/09/03 08:11:07;;;;;;;21.13;16.60;;;27.90;72.70;;;;;;5102922;28;20530;-64
2023/09/03 08:13:35;;;;;;;17.50;15.73;;;27.90;71.70;;;;;;5101944;28;20201;-64
2023/09/03 08:16:03;;;;;;;20.27;15.97;;;28.00;71.60;;;;;;5101019;28;20541;-64
2023/09/03 08:18:30;;;;;;;19.50;17.20;;;28.00;71.60;;;;;;5103648;28;20195;-65
2023/09/03 08:20:57;;;;;;;18.57;16.53;;;28.10;71.70;;;;;;5104466;28;20238;-64
2023/09/03 08:23:24;;;;;;;21.90;19.47;;;28.20;71.40;;;;;;5102346;28;20224;-64
2023/09/03 08:25:51;;;;;;;25.43;20.37;;;28.30;70.70;;;;;;5102383;28;20197;-64
2023/09/03 08:28:18;;;;;;;22.00;19.70;;;28.30;69.70;;;;;;5104315;28;20261;-64
2023/09/03 08:30:47;;;;;;;20.40;18.40;;;28.40;69.80;;;;;;5108523;28;20227;-64
2023/09/03 08:33:14;;;;;;;21.80;18.87;;;28.40;70.40;;;;;;5106074;28;20193;-64
2023/09/03 08:35:41;;;;;;;22.10;18.30;;;28.50;70.80;;;;;;5103703;28;20647;-64
2023/09/03 08:38:08;;;;;;;20.37;18.27;;;28.60;69.60;;;;;;5101258;28;20693;-64
2023/09/03 08:40:36;;;;;;;21.10;18.50;;;28.80;69.50;;;;;;5110596;28;20277;-64
2023/09/03 08:43:07;;;;;;;19.30;17.20;;;28.90;69.50;;;;;;5104084;28;20265;-64
2023/09/03 08:45:40;;;;;;;19.90;17.33;;;29.00;69.20;;;;;;5105683;28;20201;-64
2023/09/03 08:48:07;;;;;;;19.77;17.50;;;29.20;69.00;;;;;;5107170;28;20616;-65
2023/09/03 08:50:35;;;;;;;22.57;17.93;;;29.30;68.60;;;;;;5110947;28;20197;-64
2023/09/03 08:53:02;;;;;;;23.07;19.77;;;29.40;68.00;;;;;;5110489;27;20197;-64
2023/09/03 08:55:32;;;;;;;22.27;19.37;;;29.50;67.30;;;;;;5103543;28;20240;-65
2023/09/03 08:57:59;;;;;;;23.37;20.73;;;29.40;66.90;;;;;;5101866;28;20208;-65
2023/09/03 09:00:27;;;;;;;22.50;20.10;;;29.50;67.00;;;;;;5109653;28;20216;-64
2023/09/03 09:02:57;;;;;;;25.63;21.77;;;29.60;67.00;;;;;;5107238;28;20208;-64
2023/09/03 09:05:24;;;;;;;22.07;19.57;;;29.70;66.40;;;;;;5105554;28;20567;-64
2023/09/03 09:07:52;;;;;;;23.00;20.47;;;29.80;66.50;;;;;;5104699;28;20221;-64
2023/09/03 09:10:24;;;;;;;25.80;21.60;;;30.00;66.00;;;;;;5111506;28;20212;-64
2023/09/03 09:12:59;;;;;;;22.27;19.77;;;30.10;63.60;;;;;;5110646;28;20715;-64
2023/09/03 09:15:26;;;;;;;25.97;21.07;;;30.00;64.40;;;;;;5106904;28;20184;-65
2023/09/03 09:17:53;;;;;;;25.40;21.03;;;30.00;64.90;;;;;;5111249;28;20214;-65
2023/09/03 09:20:20;;;;;;;20.33;18.23;;;29.90;64.70;;;;;;5111561;28;20209;-64
2023/09/03 09:22:48;;;;;;;23.23;20.73;;;30.00;65.20;;;;;;5087224;28;20229;-64
2023/09/03 09:25:19;;;;;;;22.83;20.43;;;30.00;64.40;;;;;;5080420;28;20194;-64
2023/09/03 09:27:46;;;;;;;25.93;19.67;;;30.10;64.40;;;;;;5087459;28;20223;-64
2023/09/03 09:30:27;;;;;;;23.63;19.53;;;30.10;64.50;;;;;;5086905;28;20698;-64
2023/09/03 09:33:04;;;;;;;21.80;18.80;;;30.30;64.50;;;;;;5085926;28;20197;-64
2023/09/03 09:35:32;;;;;;;23.40;21.00;;;30.40;64.00;;;;;;5087492;28;20198;-64
2023/09/03 09:38:05;;;;;;;21.30;19.03;;;30.50;62.70;;;;;;5087344;28;20266;-64
2023/09/03 09:40:34;;;;;;;19.63;17.30;;;30.50;63.40;;;;;;5073373;28;20673;-64
2023/09/03 09:43:06;;;;;;;19.43;17.30;;;30.60;62.90;;;;;;5081932;28;20205;-65
2023/09/03 09:45:44;;;;;;;22.10;17.33;;;30.70;62.30;;;;;;5086939;28;20299;-65
2023/09/03 09:48:12;;;;;;;20.80;18.73;;;30.70;61.30;;;;;;5084455;28;20193;-65
2023/09/03 09:50:41;;;;;;;20.70;15.57;;;30.70;60.70;;;;;;5087658;28;20636;-65
2023/09/03 09:53:25;;;;;;;17.20;15.50;;;30.70;61.60;;;;;;5084333;28;20244;-64
2023/09/03 09:56:09;;;;;;;17.07;14.17;;;30.80;60.30;;;;;;5073010;28;20212;-65
2023/09/03 09:58:39;;;;;;;15.60;13.93;;;30.70;60.20;;;;;;5087182;28;20258;-65
2023/09/03 10:01:08;;;;;;;13.23;11.23;;;30.80;60.60;;;;;;5087626;28;20243;-65
2023/09/03 10:03:46;;;;;;;13.27;10.43;;;30.80;60.60;;;;;;5071002;28;20232;-65
2023/09/03 10:06:14;;;;;;;13.40;10.57;;;31.00;59.60;;;;;;5083097;28;20225;-65
2023/09/03 10:08:44;;;;;;;11.67;10.53;;;31.10;58.40;;;;;;5079936;28;20202;-65
2023/09/03 10:11:15;;;;;;;17.10;11.17;;;31.20;58.90;;;;;;5084482;28;20198;-65
2023/09/03 10:13:43;;;;;;;13.50;8.83;;;31.20;59.30;;;;;;5086436;28;20208;-65
2023/09/03 10:16:11;;;;;;;11.47;9.87;;;31.30;58.20;;;;;;5080888;28;20202;-65
2023/09/03 10:18:43;;;;;;;8.30;7.23;;;31.30;57.70;;;;;;5085631;28;20277;-64
2023/09/03 10:21:12;;;;;;;11.03;8.90;;;31.40;57.60;;;;;;5086406;28;20210;-64
2023/09/03 10:23:44;;;;;;;12.93;8.40;;;31.40;57.50;;;;;;5094463;28;20233;-65
2023/09/03 10:26:13;;;;;;;11.00;7.90;;;31.40;57.60;;;;;;5102982;28;20204;-64
2023/09/03 10:28:44;;;;;;;12.60;6.53;;;31.40;56.90;;;;;;5105306;28;21852;-64
2023/09/03 10:31:13;;;;;;;8.03;7.23;;;31.50;56.90;;;;;;5108416;28;20670;-64
2023/09/03 10:33:41;;;;;;;9.70;7.70;;;31.50;56.80;;;;;;5101019;28;20201;-64
2023/09/03 10:36:18;;;;;;;14.43;9.37;;;31.60;56.50;;;;;;5099730;28;20266;-64
2023/09/03 10:38:45;;;;;;;14.63;8.50;;;31.60;56.40;;;;;;5102127;28;20644;-64
2023/09/03 10:41:18;;;;;;;10.20;9.20;;;31.60;55.80;;;;;;5104335;28;20238;-64
2023/09/03 10:43:54;;;;;;;9.53;7.33;;;31.60;56.20;;;;;;5108870;28;20204;-64
2023/09/03 10:46:22;;;;;;;10.40;7.27;;;31.80;56.00;;;;;;5098521;28;20209;-65
2023/09/03 10:48:51;;;;;;;11.70;7.80;;;31.90;57.00;;;;;;5103410;28;20212;-65
2023/09/03 10:51:38;;;;;;;10.97;7.17;;;32.10;57.10;;;;;;5105553;28;20200;-65
2023/09/03 10:54:15;;;;;;;12.93;9.33;;;32.30;56.70;;;;;;5104515;28;20207;-65
2023/09/03 10:57:04;;;;;;;11.13;9.00;;;32.40;54.70;;;;;;5102458;28;20212;-65
2023/09/03 11:00:05;;;;;;;9.23;6.60;;;32.30;54.40;;;;;;5092345;28;20215;-65
2023/09/03 11:02:36;;;;;;;6.47;5.17;;;32.30;55.10;;;;;;5103166;28;20201;-64
2023/09/03 11:05:12;;;;;;;9.33;5.70;;;32.30;55.10;;;;;;5104076;28;20219;-64
2023/09/03 11:07:41;;;;;;;9.70;5.93;;;32.30;55.20;;;;;;5101676;28;20203;-65
2023/09/03 11:10:20;;;;;;;12.50;5.67;;;32.50;54.90;;;;;;5098092;28;20204;-65
2023/09/03 11:12:48;;;;;;;9.30;5.40;;;32.60;54.30;;;;;;5105343;28;20193;-65
2023/09/03 11:15:15;;;;;;;8.80;4.20;;;32.70;53.90;;;;;;5102576;28;20207;-65
2023/09/03 11:17:55;;;;;;;5.07;4.33;;;32.70;53.70;;;;;;5101627;28;20216;-65
2023/09/03 11:20:35;;;;;;;8.17;5.10;;;32.80;54.10;;;;;;5098589;28;20222;-65
2023/09/03 11:23:18;;;;;;;7.43;4.03;;;32.90;53.60;;;;;;5107452;28;20232;-65
2023/09/03 11:25:45;;;;;;;5.60;4.27;;;33.10;53.60;;;;;;5102896;28;20200;-65
2023/09/03 11:28:13;;;;;;;9.27;4.73;;;33.20;53.80;;;;;;5101204;28;20200;-65
2023/09/03 11:30:42;;;;;;;6.50;5.13;;;33.30;52.30;;;;;;5101614;28;20261;-65
2023/09/03 11:33:25;;;;;;;5.63;3.87;;;33.30;51.70;;;;;;5104518;28;20214;-65
2023/09/03 11:35:53;;;;;;;6.43;3.73;;;33.20;51.80;;;;;;5101921;28;20201;-65
2023/09/03 11:38:25;;;;;;;5.33;3.50;;;33.10;52.50;;;;;;5102664;28;20258;-65
2023/09/03 11:40:56;;;;;;;7.33;3.30;;;33.10;52.20;;;;;;5094606;28;20213;-65
2023/09/03 11:43:25;;;;;;;6.00;3.60;;;33.10;51.90;;;;;;5106693;28;20265;-65
2023/09/03 11:45:52;;;;;;;4.43;3.50;;;33.20;52.10;;;;;;5103238;28;20326;-65
2023/09/03 11:48:29;;;;;;;6.20;4.00;;;33.20;51.60;;;;;;5099982;28;20714;-65
2023/09/03 11:50:57;;;;;;;7.20;3.60;;;33.30;51.80;;;;;;5098482;28;20212;-65
2023/09/03 11:53:24;;;;;;;7.10;4.33;;;33.40;51.40;;;;;;5110011;28;20197;-65
2023/09/03 11:55:56;;;;;;;9.43;3.30;;;33.40;51.00;;;;;;5104209;28;20213;-65
2023/09/03 11:58:28;;;;;;;6.07;3.70;;;33.50;51.50;;;;;;5103468;28;20262;-65
2023/09/03 12:00:56;;;;;;;7.67;3.30;;;33.50;50.10;;;;;;5101321;28;20213;-65
2023/09/03 12:03:24;;;;;;;7.07;3.67;;;33.50;51.10;;;;;;5107804;28;20216;-65
2023/09/03 12:05:52;;;;;;;9.33;3.87;;;33.50;51.40;;;;;;5106570;28;20193;-65
2023/09/03 12:08:19;;;;;;;8.20;3.73;;;33.50;50.60;;;;;;5107738;28;20646;-64
2023/09/03 12:10:49;;;;;;;3.80;3.07;;;33.40;50.70;;;;;;5100059;28;20233;-64
2023/09/03 12:13:34;;;;;;;4.33;3.70;;;33.30;50.70;;;;;;5111576;28;20212;-64
2023/09/03 12:16:06;;;;;;;5.70;3.30;;;33.20;51.00;;;;;;5107585;28;20201;-64
2023/09/03 12:18:34;;;;;;;4.70;3.67;;;33.10;50.80;;;;;;5108233;28;20703;-64
2023/09/03 12:21:07;;;;;;;4.33;3.00;;;33.00;52.30;;;;;;5104423;28;20208;-65
2023/09/03 12:23:37;;;;;;;6.43;3.40;;;32.90;51.70;;;;;;5103421;28;20240;-65
2023/09/03 12:26:05;;;;;;;4.33;3.30;;;32.90;51.40;;;;;;5108238;28;20340;-65
2023/09/03 12:28:34;;;;;;;5.53;3.07;;;32.80;51.70;;;;;;5109708;28;20201;-65
2023/09/03 12:31:06;;;;;;;4.73;3.70;;;32.70;52.10;;;;;;5113829;28;20613;-65
2023/09/03 12:33:33;;;;;;;5.47;3.17;;;32.70;52.20;;;;;;5113586;28;20200;-65
2023/09/03 12:36:14;;;;;;;8.43;4.10;;;32.60;51.80;;;;;;5110870;28;20627;-64
2023/09/03 12:38:55;;;;;;;7.80;3.63;;;32.60;51.80;;;;;;5108786;28;20192;-65
2023/09/03 12:41:28;;;;;;;7.40;4.03;;;32.60;52.10;;;;;;5110709;28;20223;-64
2023/09/03 12:43:56;;;;;;;9.03;3.30;;;32.60;51.40;;;;;;5109302;28;20253;-64
2023/09/03 12:46:23;;;;;;;8.23;3.60;;;32.50;52.00;;;;;;5106923;28;20203;-64